createdAt,value
2023-01-01T00:00:00.621Z,1.1
2023-01-01T00:01:00.676Z,1.1
2023-01-01T00:02:00.655Z,1.1
2023-01-01T00:03:00.600Z,1.1
2023-01-01T00:04:00.636Z,1.1
2023-01-01T00:05:00.603Z,1.1
2023-01-01T00:06:00.609Z,1.1
2023-01-01T00:07:00.584Z,1.1
2023-01-01T00:08:04.602Z,1.1
2023-01-01T00:09:00.588Z,1.1
2023-01-01T00:10:00.660Z,1.1
2023-01-01T00:11:00.627Z,1.1
2023-01-01T00:12:00.591Z,1.1
2023-01-01T00:13:00.643Z,1.1
2023-01-01T00:14:00.627Z,1.1
2023-01-01T00:15:00.596Z,1.1
2023-01-01T00:16:00.641Z,1.1
2023-01-01T00:17:00.647Z,1.1
2023-01-01T00:18:00.624Z,1.1
2023-01-01T00:19:00.634Z,1.1
2023-01-01T00:20:00.616Z,1.1
2023-01-01T00:21:00.620Z,1.1
2023-01-01T00:22:05.662Z,1.1
2023-01-01T00:23:00.618Z,1.1
2023-01-01T00:24:00.619Z,1.1
2023-01-01T00:25:00.618Z,1.1
2023-01-01T00:26:00.632Z,1.1
2023-01-01T00:27:00.610Z,1.1
2023-01-01T00:28:00.619Z,1.1
2023-01-01T00:29:00.618Z,1.1
2023-01-01T00:30:00.618Z,1.1
2023-01-01T00:31:00.633Z,1.1
2023-01-01T00:32:00.685Z,1.1
2023-01-01T00:33:00.621Z,1.1
2023-01-01T00:34:00.626Z,1.1
2023-01-01T00:35:00.610Z,1.1
2023-01-01T00:36:00.630Z,1.1
2023-01-01T00:37:00.847Z,1.1
2023-01-01T00:38:00.613Z,1.1
2023-01-01T00:39:00.615Z,1.1
2023-01-01T00:40:00.663Z,1.1
2023-01-01T00:41:00.636Z,1.1
2023-01-01T00:42:00.618Z,1.1
2023-01-01T00:43:00.663Z,1.1
2023-01-01T00:44:00.628Z,1.1
2023-01-01T00:45:00.626Z,1.1
2023-01-01T00:46:00.687Z,1.1
2023-01-01T00:47:00.637Z,1.1
2023-01-01T00:48:00.642Z,1.1
2023-01-01T00:49:00.650Z,1.1
2023-01-01T00:50:00.645Z,1.1
2023-01-01T00:51:00.650Z,1.1
2023-01-01T00:52:00.635Z,1.1
2023-01-01T00:53:00.669Z,1.1
2023-01-01T00:54:00.628Z,1.1
2023-01-01T00:55:00.668Z,1.1
2023-01-01T00:56:00.685Z,1.1
2023-01-01T00:57:00.649Z,1.1
2023-01-01T00:58:00.666Z,1.1
2023-01-01T00:59:01.975Z,1.1
2023-01-01T01:00:00.645Z,1.1
2023-01-01T01:01:00.811Z,1.1
2023-01-01T01:02:00.841Z,1.1
2023-01-01T01:03:00.738Z,1.1
2023-01-01T01:04:00.637Z,1.1
2023-01-01T01:05:00.658Z,1.1
2023-01-01T01:06:00.679Z,1.1
2023-01-01T01:07:00.648Z,1.1
2023-01-01T01:08:00.649Z,1.1
2023-01-01T01:09:00.667Z,1.1
2023-01-01T01:10:00.656Z,1.1
2023-01-01T01:11:00.667Z,1.1
2023-01-01T01:12:18.492Z,1.1
2023-01-01T01:13:00.685Z,1.1
2023-01-01T01:14:00.682Z,1.1
2023-01-01T01:15:00.659Z,1.1
2023-01-01T01:16:00.680Z,1.1
2023-01-01T01:17:00.725Z,1.1
2023-01-01T01:18:00.656Z,1.1
2023-01-01T01:19:00.727Z,1.1
2023-01-01T01:20:00.687Z,1.1
2023-01-01T01:21:00.681Z,1.1
2023-01-01T01:22:00.694Z,1.1
2023-01-01T01:23:00.677Z,1.1
2023-01-01T01:24:00.689Z,1.1
2023-01-01T01:25:00.693Z,1.1
2023-01-01T01:26:00.687Z,1.1
2023-01-01T01:27:00.690Z,1.1
2023-01-01T01:28:00.682Z,1.1
2023-01-01T01:29:00.692Z,1.1
2023-01-01T01:30:00.695Z,1.1
2023-01-01T01:31:00.718Z,1.1
2023-01-01T01:32:00.669Z,1.1
2023-01-01T01:33:00.681Z,1.1
2023-01-01T01:34:00.706Z,1.1
2023-01-01T01:35:00.693Z,1.1
2023-01-01T01:36:00.676Z,1.1
2023-01-01T01:37:00.701Z,1.1
2023-01-01T01:38:00.684Z,1.1
2023-01-01T01:39:00.732Z,1.1
2023-01-01T01:40:00.717Z,1.1
2023-01-01T01:41:00.712Z,1.1
2023-01-01T01:42:00.684Z,1.1
2023-01-01T01:43:00.692Z,1.1
2023-01-01T01:44:00.701Z,1.1
2023-01-01T01:45:00.718Z,1.1
2023-01-01T01:46:00.832Z,1.1
2023-01-01T01:47:00.684Z,1.1
2023-01-01T01:48:00.695Z,1.1
2023-01-01T01:49:00.724Z,1.1
2023-01-01T01:50:00.706Z,1.1
2023-01-01T01:51:00.707Z,1.1
2023-01-01T01:52:00.706Z,1.1
2023-01-01T01:53:00.691Z,1.1
2023-01-01T01:54:00.720Z,1.1
2023-01-01T01:55:00.763Z,1.1
2023-01-01T01:56:00.709Z,1.1
2023-01-01T01:57:00.693Z,1.1
2023-01-01T01:58:00.699Z,1.1
2023-01-01T01:59:00.743Z,1.1
2023-01-01T02:00:06.807Z,1.1
2023-01-01T02:01:00.972Z,1.1
2023-01-01T02:02:00.857Z,1.1
2023-01-01T02:03:00.760Z,1.1
2023-01-01T02:04:00.758Z,1.1
2023-01-01T02:05:00.717Z,1.1
2023-01-01T02:06:00.737Z,1.1
2023-01-01T02:07:00.715Z,1.1
2023-01-01T02:08:00.744Z,1.1
2023-01-01T02:09:00.735Z,1.1
2023-01-01T02:10:00.724Z,1.1
2023-01-01T02:11:00.735Z,1.1
2023-01-01T02:12:00.737Z,1.1
2023-01-01T02:13:00.727Z,1.1
2023-01-01T02:14:00.735Z,1.1
2023-01-01T02:15:00.724Z,1.1
2023-01-01T02:16:00.744Z,1.1
2023-01-01T02:17:00.723Z,1.1
2023-01-01T02:18:00.728Z,1.1
2023-01-01T02:19:00.747Z,1.1
2023-01-01T02:20:00.726Z,1.1
2023-01-01T02:21:00.721Z,1.1
2023-01-01T02:22:00.721Z,1.1
2023-01-01T02:23:04.401Z,1.1
2023-01-01T02:24:00.741Z,1.1
2023-01-01T02:25:00.745Z,1.1
2023-01-01T02:26:00.749Z,1.1
2023-01-01T02:27:00.732Z,1.1
2023-01-01T02:28:00.746Z,1.1
2023-01-01T02:29:00.753Z,1.1
2023-01-01T02:30:00.718Z,1.1
2023-01-01T02:31:00.730Z,1.1
2023-01-01T02:32:00.684Z,1.1
2023-01-01T02:33:00.629Z,1.1
2023-01-01T02:34:00.642Z,1.1
2023-01-01T02:35:00.592Z,1.1
2023-01-01T02:36:00.549Z,1.1
2023-01-01T02:37:00.548Z,1.1
2023-01-01T02:38:00.510Z,1.1
2023-01-01T02:39:00.486Z,1.1
2023-01-01T02:40:00.425Z,1.1
2023-01-01T02:41:00.418Z,1.1
2023-01-01T02:42:00.402Z,1.1
2023-01-01T02:43:00.366Z,1.1
2023-01-01T02:45:00.378Z,1.1
2023-01-01T02:46:00.430Z,1.1
2023-01-01T02:47:00.381Z,1.1
2023-01-01T02:48:00.383Z,1.1
2023-01-01T02:49:04.704Z,1.1
2023-01-01T02:50:00.376Z,1.1
2023-01-01T02:51:00.396Z,1.1
2023-01-01T02:52:00.393Z,1.1
2023-01-01T02:53:00.372Z,1.1
2023-01-01T02:54:00.379Z,1.1
2023-01-01T02:55:00.382Z,1.1
2023-01-01T02:56:00.408Z,1.1
2023-01-01T02:57:00.398Z,1.1
2023-01-01T02:58:00.400Z,1.1
2023-01-01T02:59:00.386Z,1.1
2023-01-01T03:00:00.394Z,1.1
2023-01-01T03:01:01.446Z,1.1
2023-01-01T03:02:01.530Z,1.1
2023-01-01T03:03:01.583Z,1.1
2023-01-01T03:04:01.398Z,1.1
2023-01-01T03:05:01.369Z,1.1
2023-01-01T03:06:01.387Z,1.1
2023-01-01T03:07:01.373Z,1.1
2023-01-01T03:08:01.397Z,1.1
2023-01-01T03:09:01.382Z,1.1
2023-01-01T03:10:01.390Z,1.1
2023-01-01T03:11:01.399Z,1.1
2023-01-01T03:12:01.408Z,1.1
2023-01-01T03:13:01.439Z,1.1
2023-01-01T03:14:01.381Z,1.1
2023-01-01T03:15:01.397Z,1.1
2023-01-01T03:16:01.518Z,1.1
2023-01-01T03:17:01.389Z,1.1
2023-01-01T03:18:01.403Z,1.1
2023-01-01T03:19:01.382Z,1.1
2023-01-01T03:20:01.415Z,1.1
2023-01-01T03:21:01.415Z,1.1
2023-01-01T03:22:01.393Z,1.1
2023-01-01T03:23:01.407Z,1.1
2023-01-01T03:24:01.406Z,1.1
2023-01-01T03:25:01.401Z,1.1
2023-01-01T03:26:01.429Z,1.1
2023-01-01T03:27:01.424Z,1.1
2023-01-01T03:28:01.396Z,1.1
2023-01-01T03:29:01.403Z,1.1
2023-01-01T03:30:01.485Z,1.1
2023-01-01T03:31:01.500Z,1.1
2023-01-01T03:32:01.452Z,1.1
2023-01-01T03:33:01.417Z,1.1
2023-01-01T03:34:01.404Z,1.1
2023-01-01T03:35:01.425Z,1.1
2023-01-01T03:36:01.462Z,1.1
2023-01-01T03:37:01.420Z,1.1
2023-01-01T03:38:01.408Z,1.1
2023-01-01T03:39:01.417Z,1.1
2023-01-01T03:40:01.439Z,1.1
2023-01-01T03:41:01.430Z,1.1
2023-01-01T03:42:01.472Z,1.1
2023-01-01T03:43:01.413Z,1.1
2023-01-01T03:44:01.441Z,1.1
2023-01-01T03:45:01.438Z,1.1
2023-01-01T03:46:01.415Z,1.1
2023-01-01T03:47:01.523Z,1.1
2023-01-01T03:48:01.446Z,1.1
2023-01-01T03:49:04.191Z,1.1
2023-01-01T03:50:01.462Z,1.1
2023-01-01T03:51:01.433Z,1.1
2023-01-01T03:52:01.425Z,1.1
2023-01-01T03:53:01.443Z,1.1
2023-01-01T03:54:01.441Z,1.1
2023-01-01T03:55:01.456Z,1.1
2023-01-01T03:56:01.449Z,1.1
2023-01-01T03:57:01.455Z,1.1
2023-01-01T03:58:01.457Z,1.1
2023-01-01T03:59:01.451Z,1.1
2023-01-01T04:00:01.470Z,1.1
2023-01-01T04:01:01.600Z,1.1
2023-01-01T04:02:01.551Z,1.1
2023-01-01T04:03:01.508Z,1.1
2023-01-01T04:04:01.449Z,1.1
2023-01-01T04:05:01.463Z,1.1
2023-01-01T04:06:01.455Z,1.1
2023-01-01T04:07:14.241Z,1.1
2023-01-01T04:08:01.452Z,1.1
2023-01-01T04:09:01.446Z,1.1
2023-01-01T04:10:01.492Z,1.1
2023-01-01T04:11:01.450Z,1.1
2023-01-01T04:12:01.465Z,1.1
2023-01-01T04:13:01.446Z,1.1
2023-01-01T04:14:01.466Z,1.1
2023-01-01T04:15:01.471Z,1.1
2023-01-01T04:16:01.531Z,1.1
2023-01-01T04:17:01.479Z,1.1
2023-01-01T04:18:01.452Z,1.1
2023-01-01T04:19:01.451Z,1.1
2023-01-01T04:20:01.496Z,1.1
2023-01-01T04:21:01.473Z,1.1
2023-01-01T04:22:01.465Z,1.1
2023-01-01T04:23:01.458Z,1.1
2023-01-01T04:24:01.462Z,1.1
2023-01-01T04:25:01.521Z,1.1
2023-01-01T04:26:01.485Z,1.1
2023-01-01T04:27:01.484Z,1.1
2023-01-01T04:28:01.463Z,1.1
2023-01-01T04:29:01.481Z,1.1
2023-01-01T04:30:01.495Z,1.1
2023-01-01T04:31:01.478Z,1.1
2023-01-01T04:32:01.483Z,1.1
2023-01-01T04:33:01.464Z,1.1
2023-01-01T04:34:01.468Z,1.1
2023-01-01T04:35:01.501Z,1.1
2023-01-01T04:36:01.475Z,1.1
2023-01-01T04:37:01.490Z,1.1
2023-01-01T04:38:01.477Z,1.1
2023-01-01T04:39:01.511Z,1.1
2023-01-01T04:40:01.508Z,1.1
2023-01-01T04:41:01.503Z,1.1
2023-01-01T04:42:01.503Z,1.1
2023-01-01T04:43:01.511Z,1.1
2023-01-01T04:44:01.482Z,1.1
2023-01-01T04:45:01.520Z,1.1
2023-01-01T04:46:01.547Z,1.1
2023-01-01T04:47:01.505Z,1.1
2023-01-01T04:48:01.502Z,1.1
2023-01-01T04:49:01.486Z,1.1
2023-01-01T04:50:01.583Z,1.1
2023-01-01T04:51:01.502Z,1.1
2023-01-01T04:52:01.512Z,1.1
2023-01-01T04:53:01.517Z,1.1
2023-01-01T04:54:01.505Z,1.1
2023-01-01T04:55:01.541Z,1.1
2023-01-01T04:56:01.518Z,1.1
2023-01-01T04:57:01.491Z,1.1
2023-01-01T04:58:01.512Z,1.1
2023-01-01T04:59:01.501Z,1.1
2023-01-01T05:00:01.637Z,1.1
2023-01-01T05:01:01.561Z,1.1
2023-01-01T05:02:01.697Z,1.1
2023-01-01T05:03:01.573Z,1.1
2023-01-01T05:04:01.515Z,1.1
2023-01-01T05:05:01.564Z,1.1
2023-01-01T05:06:01.558Z,1.1
2023-01-01T05:07:01.519Z,1.1
2023-01-01T05:08:01.507Z,1.1
2023-01-01T05:09:01.510Z,1.1
2023-01-01T05:10:01.571Z,1.1
2023-01-01T05:11:01.512Z,1.1
2023-01-01T05:12:01.514Z,1.1
2023-01-01T05:13:01.535Z,1.1
2023-01-01T05:14:01.528Z,1.1
2023-01-01T05:15:01.534Z,1.1
2023-01-01T05:16:01.612Z,1.1
2023-01-01T05:17:01.551Z,1.1
2023-01-01T05:18:01.532Z,1.1
2023-01-01T05:19:01.544Z,1.1
2023-01-01T05:20:01.603Z,1.1
2023-01-01T05:21:01.510Z,1.1
2023-01-01T05:22:06.903Z,1.1
2023-01-01T05:23:01.514Z,1.1
2023-01-01T05:24:01.533Z,1.1
2023-01-01T05:25:01.540Z,1.1
2023-01-01T05:26:01.520Z,1.1
2023-01-01T05:27:01.522Z,1.1
2023-01-01T05:28:01.541Z,1.1
2023-01-01T05:29:01.698Z,1.1
2023-01-01T05:30:01.571Z,1.1
2023-01-01T05:31:01.531Z,1.1
2023-01-01T05:32:01.595Z,1.1
2023-01-01T05:33:01.530Z,1.1
2023-01-01T05:35:01.559Z,1.1
2023-01-01T05:36:01.612Z,1.1
2023-01-01T05:37:01.549Z,1.1
2023-01-01T05:38:01.569Z,1.1
2023-01-01T05:39:01.610Z,1.1
2023-01-01T05:40:01.600Z,1.1
2023-01-01T05:41:01.544Z,1.1
2023-01-01T05:42:01.647Z,1.1
2023-01-01T05:43:01.724Z,1.1
2023-01-01T05:44:01.739Z,1.1
2023-01-01T05:45:01.667Z,1.1
2023-01-01T05:46:01.731Z,1.1
2023-01-01T05:47:01.753Z,1.1
2023-01-01T05:48:01.767Z,1.1
2023-01-01T05:49:01.690Z,1.1
2023-01-01T05:51:01.786Z,1.1
2023-01-01T05:52:01.752Z,1.1
2023-01-01T05:53:01.744Z,1.1
2023-01-01T05:54:01.861Z,1.1
2023-01-01T05:55:01.751Z,1.1
2023-01-01T05:56:01.762Z,1.1
2023-01-01T05:57:01.777Z,1.1
2023-01-01T05:58:01.783Z,1.1
2023-01-01T05:59:01.773Z,1.1
2023-01-01T06:00:01.876Z,1.1
2023-01-01T06:01:01.855Z,1.1
2023-01-01T06:02:01.865Z,1.1
2023-01-01T06:03:01.772Z,1.1
2023-01-01T06:04:01.763Z,1.1
2023-01-01T06:05:01.764Z,1.1
2023-01-01T06:06:01.672Z,1.1
2023-01-01T06:07:01.647Z,1.1
2023-01-01T06:08:01.785Z,1.1
2023-01-01T06:09:01.646Z,1.1
2023-01-01T06:10:01.662Z,1.1
2023-01-01T06:11:01.647Z,1.1
2023-01-01T06:12:01.602Z,1.1
2023-01-01T06:13:02.006Z,1.1
2023-01-01T06:14:01.626Z,1.1
2023-01-01T06:15:01.595Z,1.1
2023-01-01T06:16:01.630Z,1.1
2023-01-01T06:17:01.622Z,1.1
2023-01-01T06:18:01.572Z,1.1
2023-01-01T06:19:01.590Z,1.1
2023-01-01T06:20:01.614Z,1.1
2023-01-01T06:21:01.578Z,1.1
2023-01-01T06:22:01.587Z,1.1
2023-01-01T06:23:01.596Z,1.1
2023-01-01T06:24:01.594Z,1.1
2023-01-01T06:25:01.601Z,1.1
2023-01-01T06:26:01.606Z,1.1
2023-01-01T06:27:01.581Z,1.1
2023-01-01T06:28:01.612Z,1.1
2023-01-01T06:29:01.594Z,1.1
2023-01-01T06:30:01.605Z,1.1
2023-01-01T06:31:01.659Z,1.1
2023-01-01T06:32:01.605Z,1.1
2023-01-01T06:33:01.592Z,1.1
2023-01-01T06:34:01.601Z,1.1
2023-01-01T06:35:01.632Z,1.1
2023-01-01T06:36:01.596Z,1.1
2023-01-01T06:37:06.732Z,1.1
2023-01-01T06:38:01.614Z,1.1
2023-01-01T06:39:01.611Z,1.1
2023-01-01T06:40:01.628Z,1.1
2023-01-01T06:41:01.622Z,1.1
2023-01-01T06:42:01.601Z,1.1
2023-01-01T06:43:01.597Z,1.1
2023-01-01T06:44:01.615Z,1.1
2023-01-01T06:45:01.652Z,1.3
2023-01-01T06:46:01.647Z,1.6
2023-01-01T06:47:01.617Z,1.9
2023-01-01T06:48:01.604Z,2.3
2023-01-01T06:49:01.649Z,2.7
2023-01-01T06:50:01.644Z,3.3
2023-01-01T06:51:01.635Z,4
2023-01-01T06:52:01.607Z,4.7
2023-01-01T06:53:01.622Z,5.7
2023-01-01T06:54:01.660Z,6.9
2023-01-01T06:55:01.639Z,8.2
2023-01-01T06:56:01.618Z,9.8
2023-01-01T06:57:01.620Z,11.7
2023-01-01T06:58:01.626Z,14.1
2023-01-01T06:59:01.653Z,16.4
2023-01-01T07:00:01.694Z,18.7
2023-01-01T07:01:07.850Z,20.9
2023-01-01T07:02:01.754Z,23.5
2023-01-01T07:03:01.834Z,26.8
2023-01-01T07:04:01.640Z,30.6
2023-01-01T07:05:01.654Z,35.3
2023-01-01T07:06:01.632Z,42.2
2023-01-01T07:07:01.631Z,50.5
2023-01-01T07:08:01.630Z,56.9
2023-01-01T07:09:01.640Z,59.7
2023-01-01T07:10:01.657Z,61.9
2023-01-01T07:11:01.655Z,65.7
2023-01-01T07:12:01.630Z,73.2
2023-01-01T07:13:01.643Z,82.5
2023-01-01T07:14:01.628Z,93
2023-01-01T07:15:01.656Z,104.8
2023-01-01T07:16:05.401Z,115.3
2023-01-01T07:17:01.645Z,125.4
2023-01-01T07:18:01.639Z,138
2023-01-01T07:19:01.686Z,148.2
2023-01-01T07:20:01.686Z,159.3
2023-01-01T07:21:01.635Z,171.1
2023-01-01T07:22:01.639Z,183.8
2023-01-01T07:23:01.641Z,197.5
2023-01-01T07:24:01.670Z,212.2
2023-01-01T07:25:01.660Z,225.3
2023-01-01T07:26:01.644Z,242
2023-01-01T07:27:01.649Z,260
2023-01-01T07:28:01.645Z,276.1
2023-01-01T07:29:07.988Z,296.6
2023-01-01T07:30:01.668Z,314.9
2023-01-01T07:31:01.682Z,334.3
2023-01-01T07:32:01.649Z,350.6
2023-01-01T07:33:01.671Z,367.8
2023-01-01T07:34:01.675Z,381.3
2023-01-01T07:35:01.663Z,399.9
2023-01-01T07:36:01.695Z,419.6
2023-01-01T07:37:01.667Z,434.9
2023-01-01T07:38:01.671Z,456.2
2023-01-01T07:39:01.663Z,472.9
2023-01-01T07:40:01.657Z,490.1
2023-01-01T07:41:01.674Z,508
2023-01-01T07:42:04.904Z,526.6
2023-01-01T07:43:01.680Z,539.3
2023-01-01T07:44:01.665Z,552.4
2023-01-01T07:45:01.668Z,572.5
2023-01-01T07:46:01.746Z,586.4
2023-01-01T07:47:01.662Z,600.6
2023-01-01T07:48:01.684Z,622.5
2023-01-01T07:49:01.690Z,630
2023-01-01T07:50:01.669Z,653
2023-01-01T07:51:01.695Z,668.8
2023-01-01T07:52:01.680Z,685.1
2023-01-01T07:53:01.690Z,693.3
2023-01-01T07:54:06.575Z,701.6
2023-01-01T07:55:01.677Z,710.1
2023-01-01T07:56:01.692Z,727.2
2023-01-01T07:57:01.678Z,753.8
2023-01-01T07:58:02.479Z,762.9
2023-01-01T07:59:01.692Z,772.1
2023-01-01T08:00:01.679Z,781.4
2023-01-01T08:01:01.769Z,781.4
2023-01-01T08:02:01.789Z,809.9
2023-01-01T08:03:01.859Z,809.9
2023-01-01T08:04:01.699Z,790.8
2023-01-01T08:05:01.720Z,790.8
2023-01-01T08:06:01.685Z,809.9
2023-01-01T08:07:01.687Z,819.6
2023-01-01T08:08:01.700Z,829.5
2023-01-01T08:09:01.701Z,829.5
2023-01-01T08:10:01.721Z,849.6
2023-01-01T08:11:03.795Z,870.2
2023-01-01T08:12:01.700Z,891.2
2023-01-01T08:13:01.710Z,891.2
2023-01-01T08:14:01.713Z,880.6
2023-01-01T08:15:01.700Z,891.2
2023-01-01T08:16:02.610Z,891.2
2023-01-01T08:17:01.695Z,891.2
2023-01-01T08:18:01.726Z,891.2
2023-01-01T08:19:01.718Z,891.2
2023-01-01T08:20:01.696Z,891.2
2023-01-01T08:21:01.708Z,912.8
2023-01-01T08:22:01.702Z,923.7
2023-01-01T08:23:07.139Z,934.9
2023-01-01T08:24:01.730Z,934.9
2023-01-01T08:25:01.705Z,946.1
2023-01-01T08:26:01.714Z,934.9
2023-01-01T08:27:01.720Z,957.5
2023-01-01T08:28:01.743Z,969
2023-01-01T08:29:01.724Z,957.5
2023-01-01T08:30:01.761Z,969
2023-01-01T08:31:01.788Z,969
2023-01-01T08:32:00.431Z,980.7
2023-01-01T08:33:00.519Z,992.5
2023-01-01T08:34:00.466Z,1028.7
2023-01-01T08:35:00.462Z,1041.1
2023-01-01T08:36:00.438Z,1053.6
2023-01-01T08:37:00.438Z,1092.1
2023-01-01T08:38:00.436Z,1132
2023-01-01T08:39:00.446Z,1159.4
2023-01-01T08:40:00.437Z,1145.6
2023-01-01T08:41:00.483Z,1132
2023-01-01T08:42:00.436Z,1201.7
2023-01-01T08:43:00.443Z,1187.5
2023-01-01T08:44:00.475Z,1118.6
2023-01-01T08:45:00.446Z,1118.6
2023-01-01T08:46:00.469Z,1105.3
2023-01-01T08:47:00.526Z,1105.3
2023-01-01T08:48:00.457Z,1159.4
2023-01-01T08:49:00.459Z,1245.7
2023-01-01T08:50:00.483Z,1260.7
2023-01-01T08:51:00.480Z,1201.7
2023-01-01T08:52:00.450Z,1145.6
2023-01-01T08:53:00.443Z,1159.4
2023-01-01T08:54:00.457Z,1092.1
2023-01-01T08:55:00.446Z,1118.6
2023-01-01T08:56:00.479Z,1092.1
2023-01-01T08:57:00.451Z,1092.1
2023-01-01T08:58:00.487Z,1092.1
2023-01-01T08:59:04.255Z,1145.6
2023-01-01T09:00:00.490Z,1187.5
2023-01-01T09:01:00.495Z,1216.2
2023-01-01T09:02:00.641Z,1245.7
2023-01-01T09:03:00.657Z,1260.7
2023-01-01T09:04:00.455Z,1230.8
2023-01-01T09:05:00.462Z,1245.7
2023-01-01T09:06:00.483Z,1245.7
2023-01-01T09:07:00.499Z,1260.7
2023-01-01T09:08:00.465Z,1275.8
2023-01-01T09:09:00.473Z,1275.8
2023-01-01T09:10:00.491Z,1306.7
2023-01-01T09:11:00.483Z,1338.3
2023-01-01T09:12:00.468Z,1370.7
2023-01-01T09:13:00.474Z,1420.8
2023-01-01T09:14:00.473Z,1403.9
2023-01-01T09:15:00.495Z,1437.9
2023-01-01T09:16:00.688Z,1437.9
2023-01-01T09:17:00.501Z,1455.2
2023-01-01T09:18:00.471Z,1455.2
2023-01-01T09:19:00.475Z,1455.2
2023-01-01T09:20:00.496Z,1472.7
2023-01-01T09:21:00.499Z,1490.4
2023-01-01T09:22:00.482Z,1508.3
2023-01-01T09:23:05.690Z,1526.4
2023-01-01T09:24:00.476Z,1544.8
2023-01-01T09:25:00.502Z,1582.3
2023-01-01T09:26:00.516Z,1526.4
2023-01-01T09:27:00.495Z,1544.8
2023-01-01T09:28:00.485Z,1544.8
2023-01-01T09:29:00.502Z,1544.8
2023-01-01T09:30:00.524Z,1563.4
2023-01-01T09:31:00.515Z,1601.3
2023-01-01T09:32:00.734Z,1601.3
2023-01-01T09:33:00.483Z,1601.3
2023-01-01T09:34:00.560Z,1640
2023-01-01T09:35:00.504Z,1659.7
2023-01-01T09:36:00.509Z,1699.9
2023-01-01T09:37:00.559Z,1783.3
2023-01-01T09:38:00.492Z,1699.9
2023-01-01T09:39:00.498Z,1640
2023-01-01T09:40:00.543Z,1620.5
2023-01-01T09:41:00.536Z,1659.7
2023-01-01T09:42:00.543Z,1679.7
2023-01-01T09:43:00.494Z,1679.7
2023-01-01T09:44:00.495Z,1699.9
2023-01-01T09:45:00.508Z,1741
2023-01-01T09:46:00.594Z,1762
2023-01-01T09:47:00.503Z,1783.3
2023-01-01T09:48:00.503Z,1720.4
2023-01-01T09:49:00.513Z,1762
2023-01-01T09:50:00.535Z,1783.3
2023-01-01T09:51:00.537Z,2058.4
2023-01-01T09:52:00.530Z,2034
2023-01-01T09:53:00.508Z,1915.9
2023-01-01T09:54:00.527Z,1893.1
2023-01-01T09:55:00.531Z,1783.3
2023-01-01T09:56:00.552Z,1783.3
2023-01-01T09:57:00.512Z,1804.7
2023-01-01T09:58:00.522Z,1762
2023-01-01T09:59:00.511Z,1783.3
2023-01-01T10:00:00.526Z,1783.3
2023-01-01T10:01:00.712Z,1679.7
2023-01-01T10:02:00.615Z,1659.7
2023-01-01T10:03:00.534Z,1720.4
2023-01-01T10:04:00.551Z,1848.4
2023-01-01T10:05:00.523Z,1783.3
2023-01-01T10:06:00.567Z,1826.4
2023-01-01T10:07:00.533Z,1915.9
2023-01-01T10:08:00.548Z,1826.4
2023-01-01T10:09:00.530Z,1783.3
2023-01-01T10:10:00.559Z,1720.4
2023-01-01T10:11:00.556Z,1679.7
2023-01-01T10:12:00.520Z,1640
2023-01-01T10:13:00.550Z,1659.7
2023-01-01T10:14:00.527Z,1659.7
2023-01-01T10:15:01.145Z,1762
2023-01-01T10:16:00.555Z,1870.6
2023-01-01T10:17:00.570Z,1938.9
2023-01-01T10:18:00.555Z,1985.8
2023-01-01T10:19:00.556Z,1870.6
2023-01-01T10:20:00.537Z,1893.1
2023-01-01T10:21:00.572Z,1985.8
2023-01-01T10:22:00.541Z,1985.8
2023-01-01T10:23:00.560Z,1985.8
2023-01-01T10:24:00.583Z,2009.8
2023-01-01T10:25:00.567Z,2009.8
2023-01-01T10:26:00.565Z,2009.8
2023-01-01T10:27:00.551Z,1985.8
2023-01-01T10:28:00.560Z,1985.8
2023-01-01T10:29:00.541Z,2009.8
2023-01-01T10:30:04.358Z,1985.8
2023-01-01T10:31:00.573Z,1938.9
2023-01-01T10:32:00.583Z,1962.2
2023-01-01T10:33:00.545Z,1893.1
2023-01-01T10:34:00.576Z,1870.6
2023-01-01T10:35:00.543Z,1783.3
2023-01-01T10:36:00.563Z,1804.7
2023-01-01T10:37:00.570Z,1762
2023-01-01T10:38:00.586Z,1741
2023-01-01T10:39:00.565Z,1699.9
2023-01-01T10:40:00.596Z,1699.9
2023-01-01T10:41:00.576Z,1826.4
2023-01-01T10:42:00.560Z,1826.4
2023-01-01T10:43:01.090Z,1870.6
2023-01-01T10:44:00.572Z,1938.9
2023-01-01T10:45:00.575Z,1870.6
2023-01-01T10:46:00.617Z,1870.6
2023-01-01T10:47:00.567Z,1741
2023-01-01T10:48:00.595Z,1699.9
2023-01-01T10:49:00.583Z,1508.3
2023-01-01T10:50:00.589Z,1720.4
2023-01-01T10:51:00.595Z,1804.7
2023-01-01T10:52:00.585Z,1403.9
2023-01-01T10:53:00.581Z,1291.2
2023-01-01T10:54:00.568Z,1306.7
2023-01-01T10:55:00.610Z,1306.7
2023-01-01T10:56:00.593Z,1322.4
2023-01-01T10:57:00.573Z,1338.3
2023-01-01T10:58:00.589Z,1370.7
2023-01-01T10:59:00.574Z,1370.7
2023-01-01T11:00:00.817Z,1370.7
2023-01-01T11:01:00.890Z,1387.2
2023-01-01T11:02:00.783Z,1437.9
2023-01-01T11:03:00.687Z,1455.2
2023-01-01T11:04:00.662Z,1640
2023-01-01T11:05:04.201Z,1870.6
2023-01-01T11:06:00.613Z,1915.9
2023-01-01T11:07:00.583Z,1659.7
2023-01-01T11:08:00.604Z,1893.1
2023-01-01T11:09:00.606Z,1870.6
2023-01-01T11:10:03.609Z,1870.6
2023-01-01T11:11:00.612Z,1893.1
2023-01-01T11:12:05.656Z,1870.6
2023-01-01T11:13:05.654Z,1915.9
2023-01-01T11:14:00.598Z,1915.9
2023-01-01T11:15:00.638Z,1915.9
2023-01-01T11:16:00.605Z,1870.6
2023-01-01T11:17:00.715Z,1870.6
2023-01-01T11:18:00.612Z,1893.1
2023-01-01T11:19:00.610Z,1893.1
2023-01-01T11:20:02.414Z,1893.1
2023-01-01T11:21:00.623Z,1915.9
2023-01-01T11:22:00.607Z,1938.9
2023-01-01T11:23:00.605Z,1915.9
2023-01-01T11:24:00.609Z,1938.9
2023-01-01T11:25:00.676Z,1915.9
2023-01-01T11:26:00.633Z,1938.9
2023-01-01T11:27:00.604Z,1985.8
2023-01-01T11:28:00.617Z,2009.8
2023-01-01T11:29:00.627Z,2034
2023-01-01T11:30:00.752Z,2034
2023-01-01T11:31:00.706Z,2034
2023-01-01T11:32:00.832Z,2058.4
2023-01-01T11:33:00.653Z,2058.4
2023-01-01T11:34:00.642Z,2058.4
2023-01-01T11:35:00.624Z,2034
2023-01-01T11:36:00.635Z,2009.8
2023-01-01T11:37:00.650Z,2058.4
2023-01-01T11:38:00.677Z,2083.2
2023-01-01T11:39:00.631Z,2108.2
2023-01-01T11:40:00.754Z,2108.2
2023-01-01T11:41:00.636Z,2133.6
2023-01-01T11:42:00.789Z,2133.6
2023-01-01T11:43:00.639Z,2159.2
2023-01-01T11:44:00.619Z,2159.2
2023-01-01T11:45:00.633Z,2185.2
2023-01-01T11:46:00.702Z,2211.5
2023-01-01T11:47:00.649Z,2211.5
2023-01-01T11:48:00.652Z,2211.5
2023-01-01T11:49:00.629Z,2238.1
2023-01-01T11:50:00.659Z,2211.5
2023-01-01T11:51:00.643Z,2211.5
2023-01-01T11:52:00.800Z,2238.1
2023-01-01T11:53:00.765Z,2238.1
2023-01-01T11:54:00.811Z,2238.1
2023-01-01T11:55:00.867Z,2211.5
2023-01-01T11:56:00.905Z,2211.5
2023-01-01T11:57:00.819Z,2211.5
2023-01-01T11:58:00.817Z,2238.1
2023-01-01T11:59:00.970Z,2211.5
2023-01-01T12:00:01.129Z,2238.1
2023-01-01T12:01:00.930Z,2211.5
2023-01-01T12:02:00.650Z,2211.5
2023-01-01T12:03:00.867Z,2211.5
2023-01-01T12:04:00.863Z,2211.5
2023-01-01T12:05:00.908Z,2133.6
2023-01-01T12:06:00.749Z,2108.2
2023-01-01T12:07:00.830Z,2211.5
2023-01-01T12:08:00.886Z,2292.3
2023-01-01T12:09:00.677Z,2319.9
2023-01-01T12:10:00.741Z,2292.3
2023-01-01T12:11:00.680Z,2238.1
2023-01-01T12:12:00.663Z,2319.9
2023-01-01T12:13:00.659Z,2347.8
2023-01-01T12:14:00.745Z,2347.8
2023-01-01T12:15:00.687Z,2347.8
2023-01-01T12:16:00.801Z,2185.2
2023-01-01T12:17:00.665Z,1962.2
2023-01-01T12:18:00.668Z,1962.2
2023-01-01T12:19:00.805Z,2083.2
2023-01-01T12:20:00.705Z,2159.2
2023-01-01T12:21:00.728Z,2211.5
2023-01-01T12:22:00.657Z,2159.2
2023-01-01T12:23:00.669Z,2159.2
2023-01-01T12:24:00.779Z,1870.6
2023-01-01T12:25:00.689Z,1938.9
2023-01-01T12:26:00.698Z,2058.4
2023-01-01T12:27:05.256Z,2034
2023-01-01T12:28:00.668Z,2185.2
2023-01-01T12:29:00.679Z,2238.1
2023-01-01T12:30:00.764Z,2238.1
2023-01-01T12:31:00.771Z,2265.1
2023-01-01T12:32:00.675Z,2265.1
2023-01-01T12:33:07.283Z,2265.1
2023-01-01T12:34:00.676Z,2238.1
2023-01-01T12:35:00.681Z,2238.1
2023-01-01T12:36:00.748Z,2238.1
2023-01-01T12:37:00.722Z,2265.1
2023-01-01T12:38:00.682Z,2211.5
2023-01-01T12:39:00.686Z,2211.5
2023-01-01T12:40:00.744Z,2238.1
2023-01-01T12:41:00.708Z,2238.1
2023-01-01T12:42:00.685Z,2238.1
2023-01-01T12:43:00.697Z,2238.1
2023-01-01T12:44:00.773Z,2211.5
2023-01-01T12:45:00.707Z,2211.5
2023-01-01T12:46:00.752Z,2211.5
2023-01-01T12:47:00.693Z,2211.5
2023-01-01T12:48:00.714Z,2211.5
2023-01-01T12:49:00.743Z,2211.5
2023-01-01T12:50:00.752Z,2211.5
2023-01-01T12:51:05.199Z,2211.5
2023-01-01T12:52:00.692Z,2211.5
2023-01-01T12:53:00.704Z,2211.5
2023-01-01T12:54:00.719Z,2159.2
2023-01-01T12:55:00.711Z,2159.2
2023-01-01T12:56:00.724Z,2211.5
2023-01-01T12:57:00.702Z,2211.5
2023-01-01T12:58:00.699Z,2211.5
2023-01-01T12:59:00.730Z,2238.1
2023-01-01T13:00:00.748Z,2238.1
2023-01-01T13:01:00.760Z,2238.1
2023-01-01T13:02:00.979Z,2211.5
2023-01-01T13:03:00.893Z,2211.5
2023-01-01T13:04:00.734Z,2133.6
2023-01-01T13:05:00.715Z,2211.5
2023-01-01T13:06:00.731Z,2211.5
2023-01-01T13:07:00.721Z,2159.2
2023-01-01T13:08:00.740Z,2185.2
2023-01-01T13:09:00.739Z,2133.6
2023-01-01T13:10:00.772Z,2159.2
2023-01-01T13:11:00.754Z,2159.2
2023-01-01T13:12:00.716Z,2159.2
2023-01-01T13:13:00.729Z,2159.2
2023-01-01T13:14:00.747Z,2159.2
2023-01-01T13:15:00.786Z,2083.2